Edgewood, Ohio
Current Conditions -  °F | °C
As of 5:53 AM on Friday 21 Nov 2014 (Local Time) from KHZY Reporting Station
Light Snow Light Snow  
Wind Chill: 11°   Ceiling: 2400
Heat Index: 22°   Visibility: 2.5mi
Dew Point: 13°   Wind: 10mph
Humidity: 68%   Direction: 300°WNW
Pressure: 30.28"   Gusts: 22mph
Location:  41.8515°N, 80.79°W
Report Text: KHZY 211053Z AUTO 30009G19KT 2 1/2SM -SN OVC024 M06/M11 A3028 RMK AO2 SNB0956E06B22 SLP266 P0000 T10561106
Loading
Personal Weather Stations






























Interactive Weather Map New forecast layout! Learn more

10-Day Weather Forecast

Advertisements
Track Severe Weather on mobile